sensor_id;sensor_type;location;lat;lon;timestamp;P1;durP1;ratioP1;P2;durP2;ratioP2
8058;SDS011;4072;42.668;23.396;2022-11-20T00:00:34;8.10;;;6.03;;
8058;SDS011;4072;42.668;23.396;2022-11-20T00:03:01;10.10;;;6.93;;
8058;SDS011;4072;42.668;23.396;2022-11-20T00:05:32;8.03;;;6.30;;
8058;SDS011;4072;42.668;23.396;2022-11-20T00:08:02;11.07;;;6.27;;
8058;SDS011;4072;42.668;23.396;2022-11-20T00:10:31;10.97;;;7.23;;
8058;SDS011;4072;42.668;23.396;2022-11-20T00:12:58;8.50;;;7.33;;
8058;SDS011;4072;42.668;23.396;2022-11-20T00:15:26;10.03;;;6.70;;
8058;SDS011;4072;42.668;23.396;2022-11-20T00:17:54;7.97;;;6.57;;
8058;SDS011;4072;42.668;23.396;2022-11-20T00:20:22;7.43;;;5.53;;
8058;SDS011;4072;42.668;23.396;2022-11-20T00:22:54;7.13;;;6.43;;
8058;SDS011;4072;42.668;23.396;2022-11-20T00:25:23;8.07;;;6.97;;
8058;SDS011;4072;42.668;23.396;2022-11-20T00:27:52;7.57;;;6.83;;
8058;SDS011;4072;42.668;23.396;2022-11-20T00:30:20;10.00;;;7.40;;
8058;SDS011;4072;42.668;23.396;2022-11-20T00:32:49;11.20;;;7.03;;
8058;SDS011;4072;42.668;23.396;2022-11-20T00:35:20;10.13;;;6.60;;
8058;SDS011;4072;42.668;23.396;2022-11-20T00:37:48;6.70;;;6.00;;
8058;SDS011;4072;42.668;23.396;2022-11-20T00:40:16;6.37;;;5.63;;
8058;SDS011;4072;42.668;23.396;2022-11-20T00:42:47;6.53;;;5.80;;
8058;SDS011;4072;42.668;23.396;2022-11-20T00:45:15;4.13;;;3.73;;
8058;SDS011;4072;42.668;23.396;2022-11-20T00:47:43;5.40;;;3.60;;
8058;SDS011;4072;42.668;23.396;2022-11-20T00:50:11;5.43;;;4.33;;
8058;SDS011;4072;42.668;23.396;2022-11-20T00:52:39;5.53;;;4.27;;
8058;SDS011;4072;42.668;23.396;2022-11-20T00:55:07;6.33;;;3.80;;
8058;SDS011;4072;42.668;23.396;2022-11-20T00:57:35;4.50;;;3.00;;
8058;SDS011;4072;42.668;23.396;2022-11-20T01:00:06;5.20;;;3.90;;
8058;SDS011;4072;42.668;23.396;2022-11-20T01:02:34;5.00;;;3.73;;
8058;SDS011;4072;42.668;23.396;2022-11-20T01:05:04;5.77;;;3.93;;
8058;SDS011;4072;42.668;23.396;2022-11-20T01:07:32;4.90;;;4.13;;
8058;SDS011;4072;42.668;23.396;2022-11-20T01:10:00;6.00;;;4.47;;
8058;SDS011;4072;42.668;23.396;2022-11-20T01:12:28;5.70;;;3.40;;
8058;SDS011;4072;42.668;23.396;2022-11-20T01:14:56;4.07;;;3.20;;
8058;SDS011;4072;42.668;23.396;2022-11-20T01:17:25;5.93;;;3.20;;
8058;SDS011;4072;42.668;23.396;2022-11-20T01:19:54;5.00;;;3.50;;
8058;SDS011;4072;42.668;23.396;2022-11-20T01:22:22;5.07;;;2.97;;
8058;SDS011;4072;42.668;23.396;2022-11-20T01:24:52;7.50;;;4.27;;
8058;SDS011;4072;42.668;23.396;2022-11-20T01:27:19;6.23;;;4.13;;
8058;SDS011;4072;42.668;23.396;2022-11-20T01:29:47;5.47;;;3.90;;
8058;SDS011;4072;42.668;23.396;2022-11-20T01:32:15;5.93;;;3.83;;
8058;SDS011;4072;42.668;23.396;2022-11-20T01:34:46;5.70;;;3.77;;
8058;SDS011;4072;42.668;23.396;2022-11-20T01:37:14;6.83;;;4.30;;
8058;SDS011;4072;42.668;23.396;2022-11-20T01:39:42;9.00;;;4.73;;
8058;SDS011;4072;42.668;23.396;2022-11-20T01:42:10;5.33;;;4.57;;
8058;SDS011;4072;42.668;23.396;2022-11-20T01:44:56;5.57;;;4.53;;
8058;SDS011;4072;42.668;23.396;2022-11-20T01:47:26;7.30;;;5.30;;
8058;SDS011;4072;42.668;23.396;2022-11-20T01:49:56;7.20;;;5.00;;
8058;SDS011;4072;42.668;23.396;2022-11-20T01:52:27;5.57;;;4.83;;
8058;SDS011;4072;42.668;23.396;2022-11-20T01:54:59;10.13;;;4.80;;
8058;SDS011;4072;42.668;23.396;2022-11-20T01:57:29;7.47;;;5.13;;
8058;SDS011;4072;42.668;23.396;2022-11-20T01:59:59;12.47;;;5.37;;
8058;SDS011;4072;42.668;23.396;2022-11-20T02:02:27;6.10;;;4.93;;
8058;SDS011;4072;42.668;23.396;2022-11-20T02:04:58;7.20;;;2.83;;
8058;SDS011;4072;42.668;23.396;2022-11-20T02:07:28;5.93;;;3.40;;
8058;SDS011;4072;42.668;23.396;2022-11-20T02:09:56;3.80;;;2.70;;
8058;SDS011;4072;42.668;23.396;2022-11-20T02:12:24;2.90;;;2.00;;
8058;SDS011;4072;42.668;23.396;2022-11-20T02:15:09;4.70;;;2.80;;
8058;SDS011;4072;42.668;23.396;2022-11-20T02:17:37;3.63;;;2.33;;
8058;SDS011;4072;42.668;23.396;2022-11-20T02:20:08;4.77;;;3.37;;
8058;SDS011;4072;42.668;23.396;2022-11-20T02:22:37;5.90;;;3.30;;
8058;SDS011;4072;42.668;23.396;2022-11-20T02:25:09;3.40;;;1.80;;
8058;SDS011;4072;42.668;23.396;2022-11-20T02:27:38;4.77;;;2.73;;
8058;SDS011;4072;42.668;23.396;2022-11-20T02:30:06;6.77;;;3.73;;
8058;SDS011;4072;42.668;23.396;2022-11-20T02:32:37;5.13;;;3.27;;
8058;SDS011;4072;42.668;23.396;2022-11-20T02:35:06;3.40;;;3.00;;
8058;SDS011;4072;42.668;23.396;2022-11-20T02:37:34;5.60;;;2.77;;
8058;SDS011;4072;42.668;23.396;2022-11-20T02:40:04;5.10;;;2.40;;
8058;SDS011;4072;42.668;23.396;2022-11-20T02:42:34;2.77;;;1.70;;
8058;SDS011;4072;42.668;23.396;2022-11-20T02:45:02;3.13;;;2.40;;
8058;SDS011;4072;42.668;23.396;2022-11-20T02:47:30;6.57;;;1.80;;
8058;SDS011;4072;42.668;23.396;2022-11-20T02:49:59;2.63;;;1.37;;
8058;SDS011;4072;42.668;23.396;2022-11-20T02:52:27;2.00;;;1.00;;
8058;SDS011;4072;42.668;23.396;2022-11-20T02:54:54;2.60;;;0.93;;
8058;SDS011;4072;42.668;23.396;2022-11-20T02:57:22;2.43;;;1.43;;
8058;SDS011;4072;42.668;23.396;2022-11-20T02:59:52;3.33;;;1.40;;
8058;SDS011;4072;42.668;23.396;2022-11-20T03:02:19;3.30;;;1.23;;
8058;SDS011;4072;42.668;23.396;2022-11-20T03:04:50;3.00;;;1.10;;
8058;SDS011;4072;42.668;23.396;2022-11-20T03:07:18;3.00;;;1.13;;
8058;SDS011;4072;42.668;23.396;2022-11-20T03:09:47;2.10;;;0.80;;
8058;SDS011;4072;42.668;23.396;2022-11-20T03:12:15;1.20;;;0.90;;
8058;SDS011;4072;42.668;23.396;2022-11-20T03:14:43;1.50;;;0.80;;
8058;SDS011;4072;42.668;23.396;2022-11-20T03:17:20;0.77;;;0.60;;
8058;SDS011;4072;42.668;23.396;2022-11-20T03:19:48;1.23;;;0.77;;
8058;SDS011;4072;42.668;23.396;2022-11-20T03:22:16;2.57;;;0.80;;
8058;SDS011;4072;42.668;23.396;2022-11-20T03:24:43;1.50;;;1.03;;
8058;SDS011;4072;42.668;23.396;2022-11-20T03:27:11;0.87;;;0.70;;
8058;SDS011;4072;42.668;23.396;2022-11-20T03:29:39;1.93;;;0.93;;
8058;SDS011;4072;42.668;23.396;2022-11-20T03:32:07;2.20;;;1.00;;
8058;SDS011;4072;42.668;23.396;2022-11-20T03:34:38;1.60;;;0.90;;
8058;SDS011;4072;42.668;23.396;2022-11-20T03:37:06;1.70;;;0.90;;
8058;SDS011;4072;42.668;23.396;2022-11-20T03:39:34;1.20;;;0.80;;
8058;SDS011;4072;42.668;23.396;2022-11-20T03:42:02;1.87;;;0.70;;
8058;SDS011;4072;42.668;23.396;2022-11-20T03:44:50;3.97;;;1.10;;
8058;SDS011;4072;42.668;23.396;2022-11-20T03:47:18;1.77;;;0.97;;
8058;SDS011;4072;42.668;23.396;2022-11-20T03:49:47;0.70;;;0.70;;
8058;SDS011;4072;42.668;23.396;2022-11-20T03:52:15;3.90;;;1.50;;
8058;SDS011;4072;42.668;23.396;2022-11-20T03:54:43;1.97;;;0.67;;
8058;SDS011;4072;42.668;23.396;2022-11-20T03:57:13;0.73;;;0.60;;
8058;SDS011;4072;42.668;23.396;2022-11-20T03:59:41;1.67;;;0.90;;
8058;SDS011;4072;42.668;23.396;2022-11-20T04:02:08;2.33;;;0.93;;
8058;SDS011;4072;42.668;23.396;2022-11-20T04:04:36;2.53;;;0.93;;
8058;SDS011;4072;42.668;23.396;2022-11-20T04:07:07;4.20;;;1.20;;
8058;SDS011;4072;42.668;23.396;2022-11-20T04:09:37;4.80;;;1.00;;
8058;SDS011;4072;42.668;23.396;2022-11-20T04:12:06;2.23;;;0.87;;
8058;SDS011;4072;42.668;23.396;2022-11-20T04:14:34;3.37;;;1.00;;
8058;SDS011;4072;42.668;23.396;2022-11-20T04:17:03;2.23;;;0.93;;
8058;SDS011;4072;42.668;23.396;2022-11-20T04:19:31;2.30;;;0.80;;
8058;SDS011;4072;42.668;23.396;2022-11-20T04:21:59;1.10;;;0.80;;
8058;SDS011;4072;42.668;23.396;2022-11-20T04:24:28;1.80;;;0.70;;
8058;SDS011;4072;42.668;23.396;2022-11-20T04:26:57;2.30;;;0.90;;
8058;SDS011;4072;42.668;23.396;2022-11-20T04:29:25;1.83;;;0.73;;
8058;SDS011;4072;42.668;23.396;2022-11-20T04:31:53;2.60;;;1.10;;
8058;SDS011;4072;42.668;23.396;2022-11-20T04:34:21;2.47;;;1.00;;
8058;SDS011;4072;42.668;23.396;2022-11-20T04:36:51;1.57;;;0.80;;
8058;SDS011;4072;42.668;23.396;2022-11-20T04:39:19;2.37;;;0.97;;
8058;SDS011;4072;42.668;23.396;2022-11-20T04:41:49;0.80;;;0.70;;
8058;SDS011;4072;42.668;23.396;2022-11-20T04:44:37;2.13;;;0.83;;
8058;SDS011;4072;42.668;23.396;2022-11-20T04:47:05;2.50;;;1.30;;
8058;SDS011;4072;42.668;23.396;2022-11-20T04:49:33;1.03;;;0.93;;
8058;SDS011;4072;42.668;23.396;2022-11-20T04:52:01;1.47;;;0.90;;
8058;SDS011;4072;42.668;23.396;2022-11-20T04:54:31;2.77;;;0.70;;
8058;SDS011;4072;42.668;23.396;2022-11-20T04:57:00;3.20;;;0.93;;
8058;SDS011;4072;42.668;23.396;2022-11-20T04:59:28;1.30;;;0.70;;
8058;SDS011;4072;42.668;23.396;2022-11-20T05:01:57;4.87;;;0.87;;
8058;SDS011;4072;42.668;23.396;2022-11-20T05:04:24;1.07;;;0.77;;
8058;SDS011;4072;42.668;23.396;2022-11-20T05:06:52;2.50;;;1.00;;
8058;SDS011;4072;42.668;23.396;2022-11-20T05:09:20;3.40;;;0.87;;
8058;SDS011;4072;42.668;23.396;2022-11-20T05:11:49;2.40;;;1.10;;
8058;SDS011;4072;42.668;23.396;2022-11-20T05:14:19;3.13;;;0.93;;
8058;SDS011;4072;42.668;23.396;2022-11-20T05:16:48;1.63;;;0.90;;
8058;SDS011;4072;42.668;23.396;2022-11-20T05:19:16;1.20;;;1.10;;
8058;SDS011;4072;42.668;23.396;2022-11-20T05:21:45;1.47;;;0.93;;
8058;SDS011;4072;42.668;23.396;2022-11-20T05:24:13;2.50;;;0.90;;
8058;SDS011;4072;42.668;23.396;2022-11-20T05:26:40;0.90;;;0.70;;
8058;SDS011;4072;42.668;23.396;2022-11-20T05:29:09;2.70;;;1.13;;
8058;SDS011;4072;42.668;23.396;2022-11-20T05:31:40;3.17;;;1.10;;
8058;SDS011;4072;42.668;23.396;2022-11-20T05:34:08;1.13;;;0.77;;
8058;SDS011;4072;42.668;23.396;2022-11-20T05:36:36;2.40;;;1.00;;
8058;SDS011;4072;42.668;23.396;2022-11-20T05:39:04;2.63;;;1.10;;
8058;SDS011;4072;42.668;23.396;2022-11-20T05:41:32;1.03;;;0.60;;
8058;SDS011;4072;42.668;23.396;2022-11-20T05:44:00;2.80;;;1.40;;
8058;SDS011;4072;42.668;23.396;2022-11-20T05:46:29;3.93;;;0.90;;
8058;SDS011;4072;42.668;23.396;2022-11-20T05:48:58;1.23;;;0.83;;
8058;SDS011;4072;42.668;23.396;2022-11-20T05:51:26;4.13;;;1.33;;
8058;SDS011;4072;42.668;23.396;2022-11-20T05:53:55;1.43;;;1.00;;
8058;SDS011;4072;42.668;23.396;2022-11-20T05:56:23;2.57;;;1.27;;
8058;SDS011;4072;42.668;23.396;2022-11-20T05:58:52;2.47;;;1.30;;
8058;SDS011;4072;42.668;23.396;2022-11-20T06:01:20;3.47;;;1.00;;
8058;SDS011;4072;42.668;23.396;2022-11-20T06:03:49;3.30;;;1.70;;
8058;SDS011;4072;42.668;23.396;2022-11-20T06:06:19;3.03;;;1.83;;
8058;SDS011;4072;42.668;23.396;2022-11-20T06:08:47;2.80;;;1.20;;
8058;SDS011;4072;42.668;23.396;2022-11-20T06:11:16;4.30;;;1.50;;
8058;SDS011;4072;42.668;23.396;2022-11-20T06:13:44;5.17;;;1.53;;
8058;SDS011;4072;42.668;23.396;2022-11-20T06:16:13;4.97;;;1.03;;
8058;SDS011;4072;42.668;23.396;2022-11-20T06:18:42;2.50;;;1.33;;
8058;SDS011;4072;42.668;23.396;2022-11-20T06:21:10;5.63;;;1.50;;
8058;SDS011;4072;42.668;23.396;2022-11-20T06:23:40;2.77;;;1.50;;
8058;SDS011;4072;42.668;23.396;2022-11-20T06:26:09;3.07;;;1.37;;
8058;SDS011;4072;42.668;23.396;2022-11-20T06:28:37;5.70;;;1.60;;
8058;SDS011;4072;42.668;23.396;2022-11-20T06:31:05;2.30;;;1.20;;
8058;SDS011;4072;42.668;23.396;2022-11-20T06:33:34;3.73;;;1.53;;
8058;SDS011;4072;42.668;23.396;2022-11-20T06:36:03;2.50;;;1.10;;
8058;SDS011;4072;42.668;23.396;2022-11-20T06:38:36;2.57;;;0.93;;
8058;SDS011;4072;42.668;23.396;2022-11-20T06:41:05;2.10;;;1.20;;
8058;SDS011;4072;42.668;23.396;2022-11-20T06:43:34;4.20;;;1.20;;
8058;SDS011;4072;42.668;23.396;2022-11-20T06:46:03;3.13;;;1.30;;
8058;SDS011;4072;42.668;23.396;2022-11-20T06:48:31;4.50;;;1.20;;
8058;SDS011;4072;42.668;23.396;2022-11-20T06:50:59;3.03;;;1.20;;
8058;SDS011;4072;42.668;23.396;2022-11-20T06:53:30;1.83;;;0.87;;
8058;SDS011;4072;42.668;23.396;2022-11-20T06:55:58;0.77;;;0.70;;
8058;SDS011;4072;42.668;23.396;2022-11-20T06:58:30;3.97;;;0.90;;
8058;SDS011;4072;42.668;23.396;2022-11-20T07:00:59;3.00;;;1.30;;
8058;SDS011;4072;42.668;23.396;2022-11-20T07:03:27;2.23;;;0.93;;
8058;SDS011;4072;42.668;23.396;2022-11-20T07:05:55;3.87;;;0.90;;
8058;SDS011;4072;42.668;23.396;2022-11-20T07:08:24;3.20;;;1.13;;
8058;SDS011;4072;42.668;23.396;2022-11-20T07:10:56;2.50;;;1.47;;
8058;SDS011;4072;42.668;23.396;2022-11-20T07:13:25;2.93;;;1.20;;
8058;SDS011;4072;42.668;23.396;2022-11-20T07:15:55;4.30;;;1.10;;
8058;SDS011;4072;42.668;23.396;2022-11-20T07:18:26;1.63;;;1.10;;
8058;SDS011;4072;42.668;23.396;2022-11-20T07:20:54;3.20;;;1.37;;
8058;SDS011;4072;42.668;23.396;2022-11-20T07:23:22;1.17;;;0.83;;
8058;SDS011;4072;42.668;23.396;2022-11-20T07:25:54;1.30;;;0.90;;
8058;SDS011;4072;42.668;23.396;2022-11-20T07:28:22;6.07;;;1.43;;
8058;SDS011;4072;42.668;23.396;2022-11-20T07:30:50;4.03;;;1.43;;
8058;SDS011;4072;42.668;23.396;2022-11-20T07:33:20;3.23;;;1.17;;
8058;SDS011;4072;42.668;23.396;2022-11-20T07:35:48;1.37;;;0.90;;
8058;SDS011;4072;42.668;23.396;2022-11-20T07:38:17;1.13;;;1.00;;
8058;SDS011;4072;42.668;23.396;2022-11-20T07:40:45;2.07;;;1.30;;
8058;SDS011;4072;42.668;23.396;2022-11-20T07:43:14;2.10;;;0.70;;
8058;SDS011;4072;42.668;23.396;2022-11-20T07:45:42;3.13;;;1.03;;
8058;SDS011;4072;42.668;23.396;2022-11-20T07:48:10;3.17;;;1.10;;
8058;SDS011;4072;42.668;23.396;2022-11-20T07:50:40;3.23;;;1.30;;
8058;SDS011;4072;42.668;23.396;2022-11-20T07:53:08;4.20;;;1.33;;
8058;SDS011;4072;42.668;23.396;2022-11-20T07:55:36;4.23;;;2.00;;
8058;SDS011;4072;42.668;23.396;2022-11-20T07:58:04;2.47;;;1.90;;
8058;SDS011;4072;42.668;23.396;2022-11-20T08:00:32;5.87;;;1.50;;
8058;SDS011;4072;42.668;23.396;2022-11-20T08:03:02;3.43;;;1.27;;
8058;SDS011;4072;42.668;23.396;2022-11-20T08:05:30;7.73;;;3.37;;
8058;SDS011;4072;42.668;23.396;2022-11-20T08:08:00;4.67;;;1.70;;
8058;SDS011;4072;42.668;23.396;2022-11-20T08:10:27;3.90;;;1.60;;
8058;SDS011;4072;42.668;23.396;2022-11-20T08:12:55;3.00;;;1.20;;
8058;SDS011;4072;42.668;23.396;2022-11-20T08:15:41;3.37;;;0.90;;
8058;SDS011;4072;42.668;23.396;2022-11-20T08:18:10;5.17;;;1.47;;
8058;SDS011;4072;42.668;23.396;2022-11-20T08:20:57;2.77;;;1.07;;
8058;SDS011;4072;42.668;23.396;2022-11-20T08:23:26;5.23;;;1.73;;
8058;SDS011;4072;42.668;23.396;2022-11-20T08:25:54;5.10;;;1.23;;
8058;SDS011;4072;42.668;23.396;2022-11-20T08:28:23;2.77;;;1.40;;
8058;SDS011;4072;42.668;23.396;2022-11-20T08:30:51;5.33;;;1.63;;
8058;SDS011;4072;42.668;23.396;2022-11-20T08:33:25;4.77;;;1.80;;
8058;SDS011;4072;42.668;23.396;2022-11-20T08:35:53;5.63;;;1.67;;
8058;SDS011;4072;42.668;23.396;2022-11-20T08:38:26;2.43;;;1.27;;
8058;SDS011;4072;42.668;23.396;2022-11-20T08:40:56;4.67;;;2.00;;
8058;SDS011;4072;42.668;23.396;2022-11-20T08:43:41;4.93;;;1.73;;
8058;SDS011;4072;42.668;23.396;2022-11-20T08:46:10;3.07;;;1.33;;
8058;SDS011;4072;42.668;23.396;2022-11-20T08:48:38;3.00;;;1.20;;
8058;SDS011;4072;42.668;23.396;2022-11-20T08:51:07;3.27;;;1.00;;
8058;SDS011;4072;42.668;23.396;2022-11-20T08:53:36;7.27;;;1.73;;
8058;SDS011;4072;42.668;23.396;2022-11-20T08:56:04;6.50;;;1.63;;
8058;SDS011;4072;42.668;23.396;2022-11-20T08:58:33;6.80;;;2.07;;
8058;SDS011;4072;42.668;23.396;2022-11-20T09:01:21;6.13;;;1.90;;
8058;SDS011;4072;42.668;23.396;2022-11-20T09:03:50;8.13;;;1.80;;
8058;SDS011;4072;42.668;23.396;2022-11-20T09:06:19;6.57;;;1.77;;
8058;SDS011;4072;42.668;23.396;2022-11-20T09:08:49;4.00;;;1.80;;
8058;SDS011;4072;42.668;23.396;2022-11-20T09:11:19;5.70;;;1.60;;
8058;SDS011;4072;42.668;23.396;2022-11-20T09:13:47;5.03;;;1.80;;
8058;SDS011;4072;42.668;23.396;2022-11-20T09:16:15;5.00;;;1.90;;
8058;SDS011;4072;42.668;23.396;2022-11-20T09:18:43;8.13;;;2.30;;
8058;SDS011;4072;42.668;23.396;2022-11-20T09:21:12;2.90;;;1.97;;
8058;SDS011;4072;42.668;23.396;2022-11-20T09:23:40;2.90;;;1.93;;
8058;SDS011;4072;42.668;23.396;2022-11-20T09:26:10;4.47;;;2.00;;
8058;SDS011;4072;42.668;23.396;2022-11-20T09:28:39;2.30;;;1.57;;
8058;SDS011;4072;42.668;23.396;2022-11-20T09:31:07;2.83;;;1.50;;
8058;SDS011;4072;42.668;23.396;2022-11-20T09:33:35;2.07;;;1.40;;
8058;SDS011;4072;42.668;23.396;2022-11-20T09:36:04;1.57;;;1.37;;
8058;SDS011;4072;42.668;23.396;2022-11-20T09:38:33;2.40;;;1.37;;
8058;SDS011;4072;42.668;23.396;2022-11-20T09:41:02;2.80;;;1.40;;
8058;SDS011;4072;42.668;23.396;2022-11-20T09:43:36;1.70;;;1.20;;
8058;SDS011;4072;42.668;23.396;2022-11-20T09:46:09;3.23;;;1.20;;
8058;SDS011;4072;42.668;23.396;2022-11-20T09:51:28;4.13;;;1.37;;
8058;SDS011;4072;42.668;23.396;2022-11-20T09:54:01;2.33;;;1.00;;
8058;SDS011;4072;42.668;23.396;2022-11-20T09:56:33;5.97;;;4.13;;
8058;SDS011;4072;42.668;23.396;2022-11-20T09:59:04;3.90;;;1.93;;
8058;SDS011;4072;42.668;23.396;2022-11-20T10:01:35;1.60;;;1.00;;
8058;SDS011;4072;42.668;23.396;2022-11-20T10:04:09;3.53;;;1.70;;
8058;SDS011;4072;42.668;23.396;2022-11-20T10:06:41;3.30;;;1.30;;
8058;SDS011;4072;42.668;23.396;2022-11-20T10:09:21;3.40;;;2.40;;
8058;SDS011;4072;42.668;23.396;2022-11-20T10:11:52;2.63;;;1.80;;
8058;SDS011;4072;42.668;23.396;2022-11-20T10:14:28;3.93;;;2.43;;
8058;SDS011;4072;42.668;23.396;2022-11-20T10:17:02;2.90;;;1.67;;
8058;SDS011;4072;42.668;23.396;2022-11-20T10:19:43;6.70;;;2.60;;
8058;SDS011;4072;42.668;23.396;2022-11-20T10:22:15;3.37;;;2.33;;
8058;SDS011;4072;42.668;23.396;2022-11-20T10:24:53;5.27;;;2.77;;
8058;SDS011;4072;42.668;23.396;2022-11-20T10:27:30;9.80;;;3.17;;
8058;SDS011;4072;42.668;23.396;2022-11-20T10:30:12;10.60;;;3.40;;
8058;SDS011;4072;42.668;23.396;2022-11-20T10:32:42;6.87;;;3.00;;
8058;SDS011;4072;42.668;23.396;2022-11-20T10:35:15;4.93;;;3.07;;
8058;SDS011;4072;42.668;23.396;2022-11-20T10:37:47;6.93;;;2.97;;
8058;SDS011;4072;42.668;23.396;2022-11-20T10:40:19;9.17;;;3.60;;
8058;SDS011;4072;42.668;23.396;2022-11-20T10:42:50;10.00;;;3.57;;
8058;SDS011;4072;42.668;23.396;2022-11-20T10:45:31;4.77;;;2.60;;
8058;SDS011;4072;42.668;23.396;2022-11-20T10:48:07;4.90;;;3.13;;
8058;SDS011;4072;42.668;23.396;2022-11-20T10:50:40;13.43;;;8.93;;
8058;SDS011;4072;42.668;23.396;2022-11-20T10:53:14;13.70;;;7.50;;
8058;SDS011;4072;42.668;23.396;2022-11-20T10:55:45;6.50;;;3.47;;
8058;SDS011;4072;42.668;23.396;2022-11-20T10:58:16;5.80;;;2.77;;
8058;SDS011;4072;42.668;23.396;2022-11-20T11:00:50;6.53;;;3.00;;
8058;SDS011;4072;42.668;23.396;2022-11-20T11:03:20;5.03;;;3.60;;
8058;SDS011;4072;42.668;23.396;2022-11-20T11:05:50;5.03;;;3.10;;
8058;SDS011;4072;42.668;23.396;2022-11-20T11:08:19;8.90;;;4.70;;
8058;SDS011;4072;42.668;23.396;2022-11-20T11:10:47;6.57;;;3.73;;
8058;SDS011;4072;42.668;23.396;2022-11-20T11:13:19;8.10;;;4.77;;
8058;SDS011;4072;42.668;23.396;2022-11-20T11:15:47;9.97;;;5.23;;
8058;SDS011;4072;42.668;23.396;2022-11-20T11:18:25;8.17;;;5.40;;
8058;SDS011;4072;42.668;23.396;2022-11-20T11:20:57;12.60;;;5.93;;
8058;SDS011;4072;42.668;23.396;2022-11-20T11:23:30;11.50;;;4.40;;
8058;SDS011;4072;42.668;23.396;2022-11-20T11:25:59;3.50;;;1.73;;
8058;SDS011;4072;42.668;23.396;2022-11-20T11:28:28;6.77;;;2.73;;
8058;SDS011;4072;42.668;23.396;2022-11-20T11:30:56;5.67;;;2.70;;
8058;SDS011;4072;42.668;23.396;2022-11-20T11:33:27;4.23;;;1.73;;
8058;SDS011;4072;42.668;23.396;2022-11-20T11:35:59;3.73;;;2.10;;
8058;SDS011;4072;42.668;23.396;2022-11-20T11:38:29;1.33;;;1.00;;
8058;SDS011;4072;42.668;23.396;2022-11-20T11:41:00;1.03;;;0.97;;
8058;SDS011;4072;42.668;23.396;2022-11-20T11:43:29;1.53;;;0.70;;
8058;SDS011;4072;42.668;23.396;2022-11-20T11:46:23;1.40;;;0.93;;
8058;SDS011;4072;42.668;23.396;2022-11-20T11:48:57;1.97;;;0.93;;
8058;SDS011;4072;42.668;23.396;2022-11-20T11:51:28;3.23;;;0.60;;
8058;SDS011;4072;42.668;23.396;2022-11-20T11:53:58;2.20;;;1.53;;
8058;SDS011;4072;42.668;23.396;2022-11-20T11:56:27;1.70;;;0.83;;
8058;SDS011;4072;42.668;23.396;2022-11-20T11:58:56;0.80;;;0.80;;
8058;SDS011;4072;42.668;23.396;2022-11-20T12:01:28;2.87;;;1.03;;
8058;SDS011;4072;42.668;23.396;2022-11-20T12:04:02;1.80;;;1.10;;
8058;SDS011;4072;42.668;23.396;2022-11-20T12:06:32;4.17;;;1.00;;
8058;SDS011;4072;42.668;23.396;2022-11-20T12:09:01;2.13;;;1.70;;
8058;SDS011;4072;42.668;23.396;2022-11-20T12:11:31;2.27;;;1.03;;
8058;SDS011;4072;42.668;23.396;2022-11-20T12:14:01;9.03;;;3.77;;
8058;SDS011;4072;42.668;23.396;2022-11-20T12:16:32;1.60;;;1.27;;
8058;SDS011;4072;42.668;23.396;2022-11-20T12:19:04;10.87;;;4.40;;
8058;SDS011;4072;42.668;23.396;2022-11-20T12:21:36;0.80;;;0.80;;
8058;SDS011;4072;42.668;23.396;2022-11-20T12:24:09;2.67;;;1.10;;
8058;SDS011;4072;42.668;23.396;2022-11-20T12:26:44;3.83;;;1.00;;
8058;SDS011;4072;42.668;23.396;2022-11-20T12:29:15;1.23;;;0.60;;
8058;SDS011;4072;42.668;23.396;2022-11-20T12:31:52;1.63;;;0.80;;
8058;SDS011;4072;42.668;23.396;2022-11-20T12:37:11;4.00;;;0.80;;
8058;SDS011;4072;42.668;23.396;2022-11-20T12:39:41;0.67;;;0.50;;
8058;SDS011;4072;42.668;23.396;2022-11-20T12:42:16;1.83;;;0.80;;
8058;SDS011;4072;42.668;23.396;2022-11-20T12:47:57;0.73;;;0.60;;
8058;SDS011;4072;42.668;23.396;2022-11-20T12:50:32;2.87;;;0.80;;
8058;SDS011;4072;42.668;23.396;2022-11-20T12:53:25;0.97;;;0.90;;
8058;SDS011;4072;42.668;23.396;2022-11-20T12:55:56;2.53;;;0.90;;
8058;SDS011;4072;42.668;23.396;2022-11-20T12:58:31;5.53;;;1.10;;
8058;SDS011;4072;42.668;23.396;2022-11-20T13:01:02;2.33;;;1.07;;
8058;SDS011;4072;42.668;23.396;2022-11-20T13:03:36;1.53;;;1.00;;
8058;SDS011;4072;42.668;23.396;2022-11-20T13:06:10;2.57;;;1.23;;
8058;SDS011;4072;42.668;23.396;2022-11-20T13:08:43;2.10;;;1.20;;
8058;SDS011;4072;42.668;23.396;2022-11-20T13:11:16;2.33;;;1.07;;
8058;SDS011;4072;42.668;23.396;2022-11-20T13:13:52;3.23;;;2.17;;
8058;SDS011;4072;42.668;23.396;2022-11-20T13:16:26;3.63;;;1.90;;
8058;SDS011;4072;42.668;23.396;2022-11-20T13:18:56;1.30;;;0.87;;
8058;SDS011;4072;42.668;23.396;2022-11-20T13:21:35;3.93;;;1.10;;
8058;SDS011;4072;42.668;23.396;2022-11-20T13:24:06;2.83;;;1.20;;
8058;SDS011;4072;42.668;23.396;2022-11-20T13:26:35;5.43;;;2.00;;
8058;SDS011;4072;42.668;23.396;2022-11-20T13:29:05;4.60;;;2.27;;
8058;SDS011;4072;42.668;23.396;2022-11-20T13:31:36;6.83;;;2.97;;
8058;SDS011;4072;42.668;23.396;2022-11-20T13:34:11;3.53;;;2.50;;
8058;SDS011;4072;42.668;23.396;2022-11-20T13:36:49;4.07;;;2.60;;
8058;SDS011;4072;42.668;23.396;2022-11-20T13:39:26;3.87;;;2.60;;
8058;SDS011;4072;42.668;23.396;2022-11-20T13:41:55;5.10;;;2.40;;
8058;SDS011;4072;42.668;23.396;2022-11-20T13:44:24;3.93;;;2.10;;
8058;SDS011;4072;42.668;23.396;2022-11-20T13:46:53;3.03;;;1.70;;
8058;SDS011;4072;42.668;23.396;2022-11-20T13:49:23;5.90;;;3.37;;
8058;SDS011;4072;42.668;23.396;2022-11-20T13:51:53;4.90;;;2.73;;
8058;SDS011;4072;42.668;23.396;2022-11-20T13:57:21;4.00;;;2.30;;
8058;SDS011;4072;42.668;23.396;2022-11-20T13:59:56;5.37;;;2.00;;
8058;SDS011;4072;42.668;23.396;2022-11-20T14:02:26;3.43;;;2.07;;
8058;SDS011;4072;42.668;23.396;2022-11-20T14:04:56;3.53;;;1.70;;
8058;SDS011;4072;42.668;23.396;2022-11-20T14:07:25;4.03;;;2.93;;
8058;SDS011;4072;42.668;23.396;2022-11-20T14:09:56;3.20;;;2.17;;
8058;SDS011;4072;42.668;23.396;2022-11-20T14:12:29;4.87;;;3.33;;
8058;SDS011;4072;42.668;23.396;2022-11-20T14:14:57;5.23;;;3.30;;
8058;SDS011;4072;42.668;23.396;2022-11-20T14:17:29;9.77;;;7.97;;
8058;SDS011;4072;42.668;23.396;2022-11-20T14:19:58;5.73;;;3.10;;
8058;SDS011;4072;42.668;23.396;2022-11-20T14:22:29;7.30;;;3.77;;
8058;SDS011;4072;42.668;23.396;2022-11-20T14:25:04;6.33;;;3.53;;
8058;SDS011;4072;42.668;23.396;2022-11-20T14:27:35;5.63;;;3.73;;
8058;SDS011;4072;42.668;23.396;2022-11-20T14:30:05;8.50;;;5.03;;
8058;SDS011;4072;42.668;23.396;2022-11-20T14:32:33;7.73;;;3.53;;
8058;SDS011;4072;42.668;23.396;2022-11-20T14:35:07;6.93;;;4.40;;
8058;SDS011;4072;42.668;23.396;2022-11-20T14:37:37;5.33;;;3.83;;
8058;SDS011;4072;42.668;23.396;2022-11-20T14:40:22;5.00;;;3.40;;
8058;SDS011;4072;42.668;23.396;2022-11-20T14:42:52;7.63;;;4.13;;
8058;SDS011;4072;42.668;23.396;2022-11-20T14:45:19;10.80;;;4.63;;
8058;SDS011;4072;42.668;23.396;2022-11-20T14:47:48;5.27;;;3.60;;
8058;SDS011;4072;42.668;23.396;2022-11-20T14:50:18;6.27;;;3.27;;
8058;SDS011;4072;42.668;23.396;2022-11-20T14:52:50;5.93;;;3.40;;
8058;SDS011;4072;42.668;23.396;2022-11-20T14:55:28;5.60;;;4.57;;
8058;SDS011;4072;42.668;23.396;2022-11-20T14:58:00;6.97;;;4.73;;
8058;SDS011;4072;42.668;23.396;2022-11-20T15:00:30;8.60;;;5.40;;
8058;SDS011;4072;42.668;23.396;2022-11-20T15:02:59;10.10;;;7.07;;
8058;SDS011;4072;42.668;23.396;2022-11-20T15:05:43;9.80;;;6.70;;
8058;SDS011;4072;42.668;23.396;2022-11-20T15:08:12;13.73;;;8.50;;
8058;SDS011;4072;42.668;23.396;2022-11-20T15:10:44;14.67;;;9.23;;
8058;SDS011;4072;42.668;23.396;2022-11-20T15:13:15;15.40;;;11.27;;
8058;SDS011;4072;42.668;23.396;2022-11-20T15:15:44;10.57;;;6.63;;
8058;SDS011;4072;42.668;23.396;2022-11-20T15:18:14;11.73;;;8.03;;
8058;SDS011;4072;42.668;23.396;2022-11-20T15:20:42;11.43;;;8.30;;
8058;SDS011;4072;42.668;23.396;2022-11-20T15:23:12;8.10;;;6.40;;
8058;SDS011;4072;42.668;23.396;2022-11-20T15:25:40;10.63;;;6.03;;
8058;SDS011;4072;42.668;23.396;2022-11-20T15:28:12;9.33;;;6.40;;
8058;SDS011;4072;42.668;23.396;2022-11-20T15:30:43;5.67;;;4.37;;